createdAt,value
2018-07-15T00:00:07.777Z,101135.84
2018-07-15T00:02:13.757Z,101145.41
2018-07-15T00:04:18.896Z,101135.91
2018-07-15T00:06:23.463Z,101138.86
2018-07-15T00:08:28.877Z,101140.96
2018-07-15T00:10:47.170Z,101143.95
2018-07-15T00:12:52.616Z,101140.44
2018-07-15T00:14:57.591Z,101126.83
2018-07-15T00:17:04.109Z,101144.86
2018-07-15T00:19:09.223Z,101137.31
2018-07-15T00:21:13.955Z,101136.86
2018-07-15T00:23:18.950Z,101138.16
2018-07-15T00:25:23.994Z,101139.84
2018-07-15T00:27:29.341Z,101137.66
2018-07-15T00:29:34.490Z,101136.75
2018-07-15T00:31:39.735Z,101121.61
2018-07-15T00:33:45.312Z,101137.39
2018-07-15T00:35:50.108Z,101136.09
2018-07-15T00:37:54.959Z,101141.13
2018-07-15T00:39:59.800Z,101140.61
2018-07-15T00:42:04.580Z,101140.92
2018-07-15T00:44:09.717Z,101142.98
2018-07-15T00:46:17.285Z,101140.39
2018-07-15T00:48:22.203Z,101142.14
2018-07-15T00:50:27.095Z,101132.42
2018-07-15T00:52:32.036Z,101142.23
2018-07-15T00:54:36.940Z,101133.76
2018-07-15T00:56:41.636Z,101132.73
2018-07-15T00:58:46.372Z,101134.48
2018-07-15T01:00:56.110Z,101130.17
2018-07-15T01:03:00.879Z,101134.80
2018-07-15T01:05:05.768Z,101137.39
2018-07-15T01:07:10.547Z,101131.63
2018-07-15T01:09:15.324Z,101133.34
2018-07-15T01:11:20.008Z,101133.34
2018-07-15T01:13:24.589Z,101132.32
2018-07-15T01:15:29.233Z,101130.41
2018-07-15T01:17:34.001Z,101137.77
2018-07-15T01:19:38.769Z,101132.97
2018-07-15T01:21:44.980Z,101129.42
2018-07-15T01:23:49.758Z,101128.55
2018-07-15T01:25:54.672Z,101124.16
2018-07-15T01:27:59.566Z,101112.30
2018-07-15T01:30:04.381Z,101122.48
2018-07-15T01:32:09.117Z,101119.31
2018-07-15T01:34:13.815Z,101118.41
2018-07-15T01:36:18.643Z,101120.08
2018-07-15T01:38:23.450Z,101119.20
2018-07-15T01:40:28.232Z,101102.00
2018-07-15T01:42:32.987Z,101119.16
2018-07-15T01:44:37.704Z,101117.29
2018-07-15T01:46:42.430Z,101120.30
2018-07-15T01:48:47.156Z,101119.46
2018-07-15T01:50:52.025Z,101115.27
2018-07-15T01:52:56.789Z,101114.36
2018-07-15T01:55:01.538Z,101110.73
2018-07-15T01:57:06.330Z,101110.65
2018-07-15T01:59:11.879Z,101104.89
2018-07-15T02:01:16.730Z,101110.91
2018-07-15T02:03:21.590Z,101114.71
2018-07-15T02:05:26.242Z,101115.13
2018-07-15T02:07:30.914Z,101098.84
2018-07-15T02:09:35.793Z,101113.25
2018-07-15T02:11:40.498Z,101114.97
2018-07-15T02:13:45.319Z,101110.20
2018-07-15T02:15:50.388Z,101109.33
2018-07-15T02:17:55.410Z,101107.53
2018-07-15T02:20:00.254Z,101116.52
2018-07-15T02:22:05.030Z,101107.29
2018-07-15T02:24:09.871Z,101110.72
2018-07-15T02:26:14.589Z,101104.95
2018-07-15T02:28:19.344Z,101107.87
2018-07-15T02:30:24.068Z,101107.79
2018-07-15T02:32:28.757Z,101105.49
2018-07-15T02:34:33.523Z,101105.00
2018-07-15T02:36:38.316Z,101110.51
2018-07-15T02:38:43.029Z,101105.70
2018-07-15T02:40:47.754Z,101104.91
2018-07-15T02:42:52.483Z,101104.83
2018-07-15T02:44:57.169Z,101107.38
2018-07-15T02:47:01.885Z,101097.64
2018-07-15T02:49:06.894Z,101105.11
2018-07-15T02:51:11.695Z,101095.55
2018-07-15T02:53:16.438Z,101104.23
2018-07-15T02:55:21.244Z,101104.19
2018-07-15T02:57:25.931Z,101101.23
2018-07-15T02:59:30.715Z,101100.35
2018-07-15T03:01:35.419Z,101107.28
2018-07-15T03:03:40.282Z,101102.48
2018-07-15T03:05:45.095Z,101100.40
2018-07-15T03:07:49.833Z,101099.94
2018-07-15T03:09:54.563Z,101103.41
2018-07-15T03:11:59.323Z,101103.20
2018-07-15T03:14:04.069Z,101101.69
2018-07-15T03:16:08.764Z,101095.88
2018-07-15T03:18:13.489Z,101098.30
2018-07-15T03:20:18.202Z,101100.03
2018-07-15T03:22:22.976Z,101100.31
2018-07-15T03:24:27.610Z,101095.69
2018-07-15T03:26:32.251Z,101094.48
2018-07-15T03:28:37.035Z,101092.97
2018-07-15T03:30:41.777Z,101090.38
2018-07-15T03:32:46.482Z,101087.59
2018-07-15T03:34:51.282Z,101094.11
2018-07-15T03:36:56.035Z,101088.16
2018-07-15T03:39:00.761Z,101085.70
2018-07-15T03:41:05.494Z,101086.62
2018-07-15T03:43:10.268Z,101085.06
2018-07-15T03:45:14.985Z,101087.56
2018-07-15T03:47:19.726Z,101085.39
2018-07-15T03:49:24.406Z,101080.40
2018-07-15T03:51:29.169Z,101084.00
2018-07-15T03:53:33.868Z,101078.31
2018-07-15T03:55:38.550Z,101081.13
2018-07-15T03:57:43.275Z,101081.56
2018-07-15T03:59:47.999Z,101079.16
2018-07-15T04:01:52.818Z,101079.34
2018-07-15T04:03:58.140Z,101074.81
2018-07-15T04:06:02.968Z,101064.80
2018-07-15T04:08:07.702Z,101070.25
2018-07-15T04:10:12.462Z,101071.13
2018-07-15T04:12:17.269Z,101071.67
2018-07-15T04:14:22.160Z,101069.14
2018-07-15T04:16:26.899Z,101061.28
2018-07-15T04:18:31.888Z,101066.13
2018-07-15T04:20:37.725Z,101037.14
2018-07-15T04:22:42.627Z,101062.21
2018-07-15T04:24:47.679Z,101046.42
2018-07-15T04:26:52.555Z,101066.97
2018-07-15T04:28:57.600Z,101063.50
2018-07-15T04:31:02.314Z,101060.31
2018-07-15T04:33:07.834Z,101060.41
2018-07-15T04:35:13.054Z,101043.78
2018-07-15T04:37:18.160Z,101052.70
2018-07-15T04:39:23.190Z,101049.88
2018-07-15T04:41:28.026Z,101059.20
2018-07-15T04:43:33.243Z,101049.88
2018-07-15T04:45:38.219Z,101048.17
2018-07-15T04:47:43.330Z,101042.41
2018-07-15T04:49:48.287Z,101053.80
2018-07-15T04:51:53.187Z,101047.75
2018-07-15T04:53:57.917Z,101052.61
2018-07-15T04:56:02.656Z,101050.16
2018-07-15T04:58:07.826Z,101044.10
2018-07-15T05:00:12.700Z,101051.49
2018-07-15T05:02:17.664Z,101058.14
2018-07-15T05:04:22.534Z,101056.10
2018-07-15T05:06:27.602Z,101053.14
2018-07-15T05:08:32.511Z,101058.91
2018-07-15T05:10:37.480Z,101041.63
2018-07-15T05:12:42.169Z,101060.13
2018-07-15T05:14:46.988Z,101062.43
2018-07-15T05:16:51.736Z,101059.05
2018-07-15T05:18:56.469Z,101060.44
2018-07-15T05:21:01.217Z,101060.27
2018-07-15T05:23:06.752Z,101041.02
2018-07-15T05:25:11.530Z,101040.77
2018-07-15T05:27:17.268Z,101065.36
2018-07-15T05:29:22.754Z,101063.39
2018-07-15T05:31:27.589Z,101068.73
2018-07-15T05:33:32.516Z,101069.73
2018-07-15T05:35:37.366Z,101072.91
2018-07-15T05:37:42.169Z,101069.72
2018-07-15T05:39:46.966Z,101072.34
2018-07-15T05:41:52.003Z,101081.57
2018-07-15T05:43:56.962Z,101074.64
2018-07-15T05:46:01.753Z,101069.38
2018-07-15T05:48:06.505Z,101077.46
2018-07-15T05:50:12.299Z,101079.71
2018-07-15T05:52:17.276Z,101083.34
2018-07-15T05:54:23.261Z,101079.64
2018-07-15T05:56:28.691Z,101055.66
2018-07-15T05:58:33.951Z,101082.30
2018-07-15T06:00:38.864Z,101087.55
2018-07-15T06:02:43.665Z,101082.66
2018-07-15T06:06:49.911Z,101085.39
2018-07-15T06:08:55.656Z,101089.73
2018-07-15T06:11:02.103Z,101084.55
2018-07-15T06:13:07.904Z,101089.73
2018-07-15T06:15:13.659Z,101065.06
2018-07-15T06:17:20.603Z,101085.02
2018-07-15T06:19:26.322Z,101090.70
2018-07-15T06:21:32.645Z,101087.69
2018-07-15T06:23:39.408Z,101087.69
2018-07-15T06:25:45.330Z,101084.18
2018-07-15T06:27:51.269Z,101088.14
2018-07-15T06:29:57.398Z,101090.48
2018-07-15T06:32:03.703Z,101081.42
2018-07-15T06:34:09.877Z,101089.02
2018-07-15T06:36:15.965Z,101087.45
2018-07-15T06:38:23.980Z,101088.09
2018-07-15T06:40:30.342Z,101086.12
2018-07-15T06:42:36.652Z,101079.94
2018-07-15T06:44:44.614Z,101083.63
2018-07-15T06:46:50.560Z,101079.45
2018-07-15T06:48:57.294Z,101067.36
2018-07-15T06:51:04.341Z,101084.63
2018-07-15T06:53:10.560Z,101083.12
2018-07-15T06:55:17.185Z,101084.05
2018-07-15T06:57:23.470Z,101078.47
2018-07-15T06:59:29.362Z,101081.73
2018-07-15T07:01:34.807Z,101075.20
2018-07-15T07:03:40.878Z,101080.73
2018-07-15T07:05:47.368Z,101077.56
2018-07-15T07:07:53.526Z,101081.97
2018-07-15T07:09:59.319Z,101049.12
2018-07-15T07:12:04.884Z,101074.62
2018-07-15T07:14:11.436Z,101072.48
2018-07-15T07:16:17.911Z,101078.42
2018-07-15T07:18:24.560Z,101067.95
2018-07-15T07:20:32.539Z,101080.91
2018-07-15T07:22:39.420Z,101067.89
2018-07-15T07:24:47.707Z,101075.08
2018-07-15T07:26:58.382Z,101080.39
2018-07-15T07:29:04.575Z,101076.22
2018-07-15T07:31:11.468Z,101062.56
2018-07-15T07:33:18.237Z,101081.94
2018-07-15T07:35:25.144Z,101082.61
2018-07-15T07:37:31.984Z,101081.73
2018-07-15T07:39:40.080Z,101079.93
2018-07-15T07:41:47.517Z,101083.01
2018-07-15T07:43:54.159Z,101088.64
2018-07-15T07:46:01.590Z,101084.89
2018-07-15T07:48:08.213Z,101081.49
2018-07-15T07:50:14.325Z,101085.45
2018-07-15T07:52:21.446Z,101086.25
2018-07-15T07:54:29.049Z,101082.41
2018-07-15T07:56:35.647Z,101086.81
2018-07-15T07:58:42.134Z,101087.33
2018-07-15T08:00:48.112Z,101082.09
2018-07-15T08:02:54.018Z,101078.99
2018-07-15T08:05:00.456Z,101081.61
2018-07-15T08:07:06.766Z,101078.71
2018-07-15T08:09:13.256Z,101074.81
2018-07-15T08:11:19.926Z,101071.37
2018-07-15T08:13:29.054Z,101061.09
2018-07-15T08:15:35.459Z,101082.04
2018-07-15T08:17:42.042Z,101078.53
2018-07-15T08:19:48.036Z,101079.98
2018-07-15T08:21:54.828Z,101080.92
2018-07-15T08:24:04.536Z,101076.59
2018-07-15T08:26:10.734Z,101075.64
2018-07-15T08:28:17.007Z,101073.44
2018-07-15T08:30:39.229Z,101076.11
2018-07-15T08:32:45.786Z,101076.61
2018-07-15T08:34:51.873Z,101080.92
2018-07-15T08:36:58.761Z,101072.69
2018-07-15T08:39:04.756Z,101076.63
2018-07-15T08:41:11.993Z,101071.05
2018-07-15T08:43:18.844Z,101068.41
2018-07-15T08:45:25.563Z,101072.85
2018-07-15T08:47:31.820Z,101071.81
2018-07-15T08:49:38.502Z,101070.23
2018-07-15T08:51:45.139Z,101078.96
2018-07-15T08:53:54.245Z,101066.31
2018-07-15T08:56:02.166Z,101072.36
2018-07-15T08:58:12.424Z,101076.28
2018-07-15T09:00:18.959Z,101065.44
2018-07-15T09:02:31.873Z,101064.13
2018-07-15T09:04:41.318Z,101065.47
2018-07-15T09:06:50.044Z,101068.11
2018-07-15T09:08:57.325Z,101065.93
2018-07-15T09:11:06.358Z,101069.48
2018-07-15T09:13:12.341Z,101070.79
2018-07-15T09:15:20.771Z,101076.02
2018-07-15T09:17:29.477Z,101075.14
2018-07-15T09:19:35.883Z,101078.20
2018-07-15T09:21:43.064Z,101069.91
2018-07-15T09:23:54.728Z,101074.27
2018-07-15T09:26:06.897Z,101076.44
2018-07-15T09:28:16.405Z,101073.84
2018-07-15T09:30:23.301Z,101075.56
2018-07-15T09:32:30.423Z,101055.08
2018-07-15T09:34:37.934Z,101075.58
2018-07-15T09:36:45.736Z,101070.77
2018-07-15T09:38:53.673Z,101069.02
2018-07-15T09:41:02.143Z,101075.13
2018-07-15T09:43:14.084Z,101075.11
2018-07-15T09:45:20.583Z,101078.61
2018-07-15T09:47:27.111Z,101082.09
2018-07-15T09:49:33.715Z,101080.79
2018-07-15T09:51:42.902Z,101072.48
2018-07-15T09:53:58.272Z,101069.88
2018-07-15T09:56:18.382Z,101075.98
2018-07-15T10:00:42.753Z,101072.91
2018-07-15T10:02:55.985Z,101066.83
2018-07-15T10:05:00.969Z,101069.89
2018-07-15T10:07:06.856Z,101045.44
2018-07-15T10:09:12.214Z,101078.16
2018-07-15T10:11:17.691Z,101068.11
2018-07-15T10:13:23.452Z,101067.27
2018-07-15T10:15:28.746Z,101062.02
2018-07-15T10:17:35.466Z,101062.91
2018-07-15T10:19:42.526Z,101063.31
2018-07-15T10:21:47.619Z,101064.17
2018-07-15T10:23:52.553Z,101056.30
2018-07-15T10:25:57.420Z,101057.17
2018-07-15T10:28:02.994Z,101051.02
2018-07-15T10:30:08.155Z,101049.81
2018-07-15T10:32:13.425Z,101038.45
2018-07-15T10:34:18.702Z,101039.25
2018-07-15T10:36:23.863Z,101041.70
2018-07-15T10:38:29.014Z,101049.05
2018-07-15T10:40:33.501Z,101033.84
2018-07-15T10:42:39.588Z,101038.56
2018-07-15T10:44:46.628Z,101037.34
2018-07-15T10:46:59.977Z,101034.27
2018-07-15T10:49:09.058Z,101013.10
2018-07-15T10:51:19.649Z,101025.36
2018-07-15T10:53:24.867Z,101021.02
2018-07-15T10:55:29.908Z,101035.47
2018-07-15T10:57:35.524Z,101030.22
2018-07-15T10:59:40.920Z,100973.05
2018-07-15T11:01:46.108Z,101029.72
2018-07-15T11:03:51.583Z,101013.11
2018-07-15T11:05:56.456Z,101029.25
2018-07-15T11:08:01.374Z,101027.52
2018-07-15T11:10:06.513Z,101027.95
2018-07-15T11:12:12.675Z,101025.67
2018-07-15T11:14:18.960Z,101021.66
2018-07-15T11:16:35.951Z,101019.09
2018-07-15T11:18:40.821Z,101024.70
2018-07-15T11:20:45.889Z,101010.30
2018-07-15T11:22:50.809Z,101015.97
2018-07-15T11:24:55.707Z,101018.16
2018-07-15T11:27:01.024Z,101014.17
2018-07-15T11:29:06.042Z,101010.19
2018-07-15T11:31:11.522Z,101014.52
2018-07-15T11:33:16.304Z,101017.86
2018-07-15T11:35:21.241Z,101015.66
2018-07-15T11:37:26.389Z,101019.54
2018-07-15T11:39:31.285Z,101015.62
2018-07-15T11:41:36.373Z,101015.14
2018-07-15T11:43:41.318Z,101024.72
2018-07-15T11:45:46.100Z,101016.86
2018-07-15T11:47:51.477Z,101017.41
2018-07-15T11:49:56.709Z,101015.22
2018-07-15T11:52:01.665Z,101001.08
2018-07-15T11:54:06.751Z,101000.23
2018-07-15T11:56:11.789Z,101008.47
2018-07-15T11:58:17.482Z,101000.69
2018-07-15T12:00:22.340Z,100994.89
2018-07-15T12:02:27.148Z,100991.69
2018-07-15T12:04:32.249Z,100993.52
2018-07-15T12:06:37.219Z,100988.06
2018-07-15T12:08:42.441Z,100984.73
2018-07-15T12:10:50.019Z,100984.53
2018-07-15T12:12:54.887Z,100979.75
2018-07-15T12:14:59.733Z,100972.87
2018-07-15T12:17:04.931Z,100976.70
2018-07-15T12:19:09.898Z,100971.81
2018-07-15T12:21:15.157Z,100970.81
2018-07-15T12:23:20.697Z,100964.04
2018-07-15T12:25:26.283Z,100965.89
2018-07-15T12:27:31.203Z,100960.92
2018-07-15T12:29:36.045Z,100956.14
2018-07-15T12:31:41.139Z,100956.90
2018-07-15T12:33:46.548Z,100954.77
2018-07-15T12:35:51.723Z,100959.30
2018-07-15T12:37:56.476Z,100954.57
2018-07-15T12:40:01.938Z,100952.91
2018-07-15T12:42:08.664Z,100955.14
2018-07-15T12:44:13.701Z,100934.20
2018-07-15T12:46:18.600Z,100938.97
2018-07-15T12:48:23.933Z,100924.43
2018-07-15T12:50:28.880Z,100932.25
2018-07-15T12:52:33.962Z,100932.94
2018-07-15T12:54:39.909Z,100931.03
2018-07-15T12:56:44.802Z,100927.89
2018-07-15T12:58:50.603Z,100925.80
2018-07-15T13:00:55.379Z,100918.23
2018-07-15T13:03:00.140Z,100915.06
2018-07-15T13:05:05.388Z,100917.11
2018-07-15T13:07:10.225Z,100914.25
2018-07-15T13:09:14.991Z,100911.99
2018-07-15T13:11:21.948Z,100918.59
2018-07-15T13:13:26.967Z,100904.50
2018-07-15T13:15:32.021Z,100911.41
2018-07-15T13:17:36.813Z,100900.52
2018-07-15T13:19:41.889Z,100898.76
2018-07-15T13:21:47.060Z,100897.58
2018-07-15T13:23:52.063Z,100895.39
2018-07-15T13:25:56.952Z,100897.91
2018-07-15T13:28:02.613Z,100894.39
2018-07-15T13:30:07.809Z,100895.39
2018-07-15T13:32:12.967Z,100892.09
2018-07-15T13:34:18.098Z,100891.90
2018-07-15T13:36:23.106Z,100889.30
2018-07-15T13:38:27.953Z,100881.23
2018-07-15T13:40:33.105Z,100883.62
2018-07-15T13:42:38.488Z,100882.83
2018-07-15T13:44:44.055Z,100879.94
2018-07-15T13:46:52.207Z,100849.14
2018-07-15T13:48:57.289Z,100881.73
2018-07-15T13:51:02.269Z,100866.13
2018-07-15T13:53:07.404Z,100858.95
2018-07-15T13:55:13.480Z,100869.28
2018-07-15T13:57:18.490Z,100862.44
2018-07-15T13:59:23.946Z,100862.20
2018-07-15T14:01:32.573Z,100864.63
2018-07-15T14:03:39.279Z,100858.70
2018-07-15T14:05:49.255Z,100862.56
2018-07-15T14:07:56.863Z,100846.02
2018-07-15T14:10:04.795Z,100862.48
2018-07-15T14:12:12.263Z,100850.72
2018-07-15T14:14:17.947Z,100863.58
2018-07-15T14:16:25.241Z,100851.31
2018-07-15T14:18:30.508Z,100850.59
2018-07-15T14:20:52.069Z,100848.48
2018-07-15T14:22:56.926Z,100851.41
2018-07-15T14:25:02.156Z,100845.23
2018-07-15T14:27:07.032Z,100842.64
2018-07-15T14:29:12.302Z,100846.88
2018-07-15T14:31:17.175Z,100842.83
2018-07-15T14:33:22.318Z,100842.61
2018-07-15T14:35:27.338Z,100842.16
2018-07-15T14:37:33.288Z,100842.16
2018-07-15T14:39:40.520Z,100834.03
2018-07-15T14:41:45.551Z,100839.69
2018-07-15T14:43:50.812Z,100836.86
2018-07-15T14:45:55.819Z,100839.42
2018-07-15T14:48:00.431Z,100833.42
2018-07-15T14:50:05.810Z,100835.96
2018-07-15T14:52:10.920Z,100833.10
2018-07-15T14:54:15.936Z,100830.30
2018-07-15T14:56:21.372Z,100837.53
2018-07-15T14:58:26.482Z,100825.49
2018-07-15T15:00:32.845Z,100827.73
2018-07-15T15:02:38.118Z,100828.03
2018-07-15T15:04:43.307Z,100834.90
2018-07-15T15:06:48.458Z,100825.48
2018-07-15T15:08:53.503Z,100825.83
2018-07-15T15:10:59.166Z,100822.23
2018-07-15T15:13:04.300Z,100822.85
2018-07-15T15:15:09.624Z,100823.55
2018-07-15T15:17:14.653Z,100813.66
2018-07-15T15:19:20.169Z,100820.18
2018-07-15T15:21:25.616Z,100806.03
2018-07-15T15:23:30.826Z,100812.12
2018-07-15T15:25:36.583Z,100817.83
2018-07-15T15:27:42.727Z,100815.84
2018-07-15T15:29:48.221Z,100815.02
2018-07-15T15:31:53.995Z,100729.75
2018-07-15T15:33:58.937Z,100810.56
2018-07-15T15:36:05.991Z,100795.16
2018-07-15T15:38:12.983Z,100784.94
2018-07-15T15:40:18.695Z,100747.40
2018-07-15T15:42:24.576Z,100809.33
2018-07-15T15:44:29.971Z,100804.05
2018-07-15T15:46:34.883Z,100792.84
2018-07-15T15:48:40.701Z,100805.14
2018-07-15T15:50:46.985Z,100747.92
2018-07-15T15:52:52.403Z,100774.72
2018-07-15T15:54:57.209Z,100778.08
2018-07-15T15:57:02.266Z,100789.56
2018-07-15T15:59:08.019Z,100726.38
2018-07-15T16:01:13.526Z,100790.09
2018-07-15T16:03:19.416Z,100777.33
2018-07-15T16:05:24.195Z,100788.62
2018-07-15T16:07:30.113Z,100789.83
2018-07-15T16:09:35.258Z,100750.06
2018-07-15T16:11:40.772Z,100761.05
2018-07-15T16:13:49.317Z,100729.16
2018-07-15T16:15:54.387Z,100775.72
2018-07-15T16:17:59.304Z,100790.56
2018-07-15T16:20:05.109Z,100781.56
2018-07-15T16:22:10.030Z,100773.61
2018-07-15T16:24:14.931Z,100773.83
2018-07-15T16:26:20.213Z,100777.66
2018-07-15T16:28:24.940Z,100782.11
2018-07-15T16:30:29.964Z,100783.09
2018-07-15T16:32:34.985Z,100783.95
2018-07-15T16:34:39.873Z,100785.47
2018-07-15T16:36:44.801Z,100780.20
2018-07-15T16:38:49.997Z,100781.25
2018-07-15T16:40:55.002Z,100777.48
2018-07-15T16:43:03.021Z,100779.20
2018-07-15T16:45:08.441Z,100784.80
2018-07-15T16:47:14.090Z,100779.16
2018-07-15T16:49:19.060Z,100788.14
2018-07-15T16:51:24.311Z,100785.91
2018-07-15T16:53:30.296Z,100788.02
2018-07-15T16:55:35.595Z,100789.05
2018-07-15T16:57:42.553Z,100668.27
2018-07-15T16:59:47.617Z,100792.56
2018-07-15T17:01:52.549Z,100792.47
2018-07-15T17:03:58.477Z,100740.12
2018-07-15T17:06:03.659Z,100754.16
2018-07-15T17:08:08.561Z,100789.58
2018-07-15T17:10:13.828Z,100787.41
2018-07-15T17:12:19.149Z,100774.56
2018-07-15T17:14:24.096Z,100780.55
2018-07-15T17:16:29.204Z,100776.70
2018-07-15T17:18:34.026Z,100772.30
2018-07-15T17:20:39.069Z,100758.27
2018-07-15T17:22:43.936Z,100769.80
2018-07-15T17:24:49.191Z,100771.06
2018-07-15T17:26:54.324Z,100767.91
2018-07-15T17:28:59.264Z,100765.74
2018-07-15T17:31:04.240Z,100770.20
2018-07-15T17:33:10.683Z,100757.84
2018-07-15T17:35:15.714Z,100768.64
2018-07-15T17:37:20.688Z,100762.70
2018-07-15T17:39:25.808Z,100764.93
2018-07-15T17:41:31.089Z,100758.24
2018-07-15T17:43:35.761Z,100754.44
2018-07-15T17:45:43.590Z,100760.98
2018-07-15T17:47:48.796Z,100753.96
2018-07-15T17:49:54.070Z,100753.92
2018-07-15T17:51:59.581Z,100763.27
2018-07-15T17:54:04.699Z,100760.41
2018-07-15T17:56:09.980Z,100756.39
2018-07-15T17:58:15.252Z,100756.44
2018-07-15T18:00:21.047Z,100764.02
2018-07-15T18:02:25.993Z,100766.54
2018-07-15T18:04:30.860Z,100756.48
2018-07-15T18:06:36.572Z,100714.66
2018-07-15T18:08:43.717Z,100770.58
2018-07-15T18:10:49.030Z,100770.70
2018-07-15T18:12:54.115Z,100777.06
2018-07-15T18:14:59.351Z,100766.20
2018-07-15T18:17:05.610Z,100777.27
2018-07-15T18:19:11.332Z,100739.27
2018-07-15T18:21:17.187Z,100717.27
2018-07-15T18:23:23.856Z,100774.65
2018-07-15T18:25:29.061Z,100778.70
2018-07-15T18:27:36.782Z,100778.17
2018-07-15T18:29:42.530Z,100777.53
2018-07-15T18:31:48.178Z,100782.67
2018-07-15T18:33:54.560Z,100788.71
2018-07-15T18:36:03.685Z,100781.02
2018-07-15T18:38:10.916Z,100724.20
2018-07-15T18:40:18.315Z,100727.04
2018-07-15T18:42:25.528Z,100785.52
2018-07-15T18:44:33.396Z,100785.05
2018-07-15T18:46:40.612Z,100785.27
2018-07-15T18:48:48.443Z,100781.62
2018-07-15T18:50:55.457Z,100782.17
2018-07-15T18:53:03.492Z,100782.13
2018-07-15T18:55:11.462Z,100772.31
2018-07-15T18:57:19.248Z,100770.08
2018-07-15T18:59:24.873Z,100754.06
2018-07-15T19:01:31.597Z,100770.27
2018-07-15T19:03:38.345Z,100770.69
2018-07-15T19:05:44.937Z,100768.70
2018-07-15T19:07:51.392Z,100776.27
2018-07-15T19:09:58.950Z,100775.53
2018-07-15T19:12:04.225Z,100783.00
2018-07-15T19:14:10.697Z,100785.69
2018-07-15T19:16:17.173Z,100790.16
2018-07-15T19:18:24.202Z,100788.93
2018-07-15T19:20:30.408Z,100796.50
2018-07-15T19:22:37.437Z,100792.13
2018-07-15T19:24:43.096Z,100792.28
2018-07-15T19:26:49.451Z,100794.48
2018-07-15T19:28:56.767Z,100788.48
2018-07-15T19:31:02.193Z,100782.88
2018-07-15T19:33:08.164Z,100789.06
2018-07-15T19:35:17.597Z,100785.59
2018-07-15T19:37:27.621Z,100793.95
2018-07-15T19:39:35.008Z,100771.38
2018-07-15T19:41:42.291Z,100795.34
2018-07-15T19:43:51.554Z,100794.50
2018-07-15T19:45:59.916Z,100788.88
2018-07-15T19:48:09.720Z,100802.87
2018-07-15T19:50:25.746Z,100808.61
2018-07-15T19:52:31.726Z,100773.81
2018-07-15T19:54:56.191Z,100807.38
2018-07-15T19:57:04.356Z,100811.27
2018-07-15T19:59:16.774Z,100813.91
2018-07-15T20:01:26.457Z,100813.94
2018-07-15T20:03:33.272Z,100815.27
2018-07-15T20:05:39.224Z,100819.20
2018-07-15T20:07:45.456Z,100769.16
2018-07-15T20:09:54.718Z,100825.77
2018-07-15T20:12:00.721Z,100750.87
2018-07-15T20:14:19.113Z,100810.97
2018-07-15T20:16:27.569Z,100778.30
2018-07-15T20:18:33.269Z,100766.55
2018-07-15T20:20:47.695Z,100834.94
2018-07-15T20:22:53.926Z,100827.50
2018-07-15T20:25:13.116Z,100833.16
2018-07-15T20:27:20.488Z,100831.86
2018-07-15T20:29:27.452Z,100831.86
2018-07-15T20:31:36.150Z,100828.81
2018-07-15T20:33:45.915Z,100833.59
2018-07-15T20:35:52.465Z,100834.03
2018-07-15T20:38:00.213Z,100834.03
2018-07-15T20:40:05.602Z,100828.36
2018-07-15T20:42:10.741Z,100824.45
2018-07-15T20:44:16.362Z,100827.45
2018-07-15T20:46:21.746Z,100831.36
2018-07-15T20:48:26.752Z,100831.36
2018-07-15T20:50:32.161Z,100828.31
2018-07-15T20:52:37.703Z,100831.79
2018-07-15T20:54:42.685Z,100829.17
2018-07-15T20:56:47.778Z,100830.03
2018-07-15T20:58:52.588Z,100829.59
2018-07-15T21:00:57.893Z,100828.23
2018-07-15T21:03:03.222Z,100831.25
2018-07-15T21:05:08.762Z,100826.39
2018-07-15T21:07:16.014Z,100838.19
2018-07-15T21:09:20.983Z,100836.87
2018-07-15T21:11:26.474Z,100833.78
2018-07-15T21:13:31.742Z,100831.17
2018-07-15T21:15:36.744Z,100826.82
2018-07-15T21:17:42.335Z,100828.97
2018-07-15T21:19:47.379Z,100830.70
2018-07-15T21:21:52.584Z,100824.13
2018-07-15T21:23:57.600Z,100831.97
2018-07-15T21:26:02.549Z,100837.16
2018-07-15T21:28:08.194Z,100817.95
2018-07-15T21:30:13.288Z,100840.16
2018-07-15T21:32:18.591Z,100840.98
2018-07-15T21:34:24.039Z,100842.27
2018-07-15T21:36:29.302Z,100840.02
2018-07-15T21:38:34.273Z,100832.52
2018-07-15T21:40:39.653Z,100839.92
2018-07-15T21:42:44.631Z,100842.06
2018-07-15T21:44:49.710Z,100845.57
2018-07-15T21:46:54.944Z,100822.88
2018-07-15T21:49:00.338Z,100843.84
2018-07-15T21:51:04.924Z,100839.88
2018-07-15T21:53:09.986Z,100838.58
2018-07-15T21:55:15.941Z,100840.77
2018-07-15T21:57:21.117Z,100840.28
2018-07-15T21:59:26.222Z,100832.88
2018-07-15T22:01:40.438Z,100839.37
2018-07-15T22:03:45.447Z,100834.99
2018-07-15T22:05:52.205Z,100811.86
2018-07-15T22:08:14.414Z,100841.51
2018-07-15T22:10:33.773Z,100833.20
2018-07-15T22:12:38.734Z,100840.15
2018-07-15T22:14:43.679Z,100840.53
2018-07-15T22:16:48.657Z,100835.27
2018-07-15T22:18:53.566Z,100837.46
2018-07-15T22:20:58.839Z,100815.18
2018-07-15T22:23:03.700Z,100840.02
2018-07-15T22:25:08.959Z,100836.52
2018-07-15T22:27:14.287Z,100835.98
2018-07-15T22:29:19.305Z,100833.78
2018-07-15T22:31:24.976Z,100839.01
2018-07-15T22:33:29.994Z,100834.63
2018-07-15T22:35:35.213Z,100835.48
2018-07-15T22:37:40.685Z,100836.82
2018-07-15T22:39:45.673Z,100833.25
2018-07-15T22:41:50.485Z,100832.03
2018-07-15T22:43:55.258Z,100830.20
2018-07-15T22:46:00.154Z,100815.34
2018-07-15T22:48:05.073Z,100828.39
2018-07-15T22:50:09.900Z,100830.13
2018-07-15T22:52:14.977Z,100828.81
2018-07-15T22:54:19.826Z,100821.86
2018-07-15T22:56:24.612Z,100827.11
2018-07-15T22:58:29.270Z,100825.86
2018-07-15T23:00:34.154Z,100824.45
2018-07-15T23:02:38.993Z,100826.19
2018-07-15T23:05:58.225Z,100807.98
2018-07-15T23:08:03.505Z,100823.66
2018-07-15T23:10:08.228Z,100820.56
2018-07-15T23:12:13.168Z,100799.62
2018-07-15T23:14:18.282Z,100819.70
2018-07-15T23:16:23.334Z,100809.26
2018-07-15T23:18:28.477Z,100804.91
2018-07-15T23:20:34.365Z,100810.14
2018-07-15T23:22:39.360Z,100804.06
2018-07-15T23:24:44.311Z,100807.05
2018-07-15T23:26:49.083Z,100809.63
2018-07-15T23:28:53.852Z,100807.41
2018-07-15T23:30:58.599Z,100809.58
2018-07-15T23:33:04.109Z,100811.73
2018-07-15T23:35:09.309Z,100805.60
2018-07-15T23:37:14.294Z,100809.61
2018-07-15T23:39:19.473Z,100809.56
2018-07-15T23:41:24.628Z,100793.88
2018-07-15T23:43:29.533Z,100807.84
2018-07-15T23:45:35.127Z,100813.08
2018-07-15T23:47:40.276Z,100813.05
2018-07-15T23:49:45.279Z,100790.72
2018-07-15T23:51:50.103Z,100816.45
2018-07-15T23:53:55.304Z,100813.36
2018-07-15T23:56:00.166Z,100812.12
2018-07-15T23:58:04.971Z,100818.62
